Time;durP1;ratioP1;P1;durP2;ratioP2;P2;SDS_P1;SDS_P2;PMS_P1;PMS_P2;Temp;Humidity;BMP_temperature;BMP_pressure;BME280_temperature;BME280_humidity;BME280_pressure;Samples;Min_cycle;Max_cycle;Signal;HPM_P1;HPM_P2
2021/09/12 00:00:28;;;;;;;10.05;9.050001;;;;;;;13.07;100;95473.36;;;;
2021/09/12 00:01:28;;;;;;;10.05;9.050001;;;;;;;13.07;100;95473.36;;;;
2021/09/12 00:02:29;;;;;;;10.05;9.050001;;;;;;;13.07;100;95473.36;;;;
2021/09/12 00:03:30;;;;;;;10.05;9.050001;;;;;;;13.07;100;95473.36;;;;
2021/09/12 00:04:30;;;;;;;10.15;9.15;;;;;;;13.08;100;95474.05;;;;
2021/09/12 00:05:31;;;;;;;10.15;9.15;;;;;;;13.08;100;95474.05;;;;
2021/09/12 00:06:31;;;;;;;10.15;9.15;;;;;;;13.08;100;95474.05;;;;
2021/09/12 00:07:32;;;;;;;10.15;9.15;;;;;;;13.08;100;95474.05;;;;
2021/09/12 00:08:32;;;;;;;10.15;9.15;;;;;;;13.08;100;95474.05;;;;
2021/09/12 00:09:33;;;;;;;10.15;9.15;;;;;;;13.08;100;95474.05;;;;
2021/09/12 00:10:34;;;;;;;10.15;9.15;;;;;;;13.08;100;95474.05;;;;
2021/09/12 00:11:34;;;;;;;10.15;9.15;;;;;;;13.08;100;95474.05;;;;
2021/09/12 00:12:35;;;;;;;10.15;9.15;;;;;;;13.08;100;95474.05;;;;
2021/09/12 00:13:35;;;;;;;10.15;9.15;;;;;;;13.08;100;95474.05;;;;
2021/09/12 00:14:36;;;;;;;10.15;9.15;;;;;;;13.08;100;95474.05;;;;
2021/09/12 00:15:36;;;;;;;12.8;10.25;;;;;;;13.01;100;95465.76;;;;
2021/09/12 00:16:37;;;;;;;12.8;10.25;;;;;;;13.01;100;95465.76;;;;
2021/09/12 00:17:37;;;;;;;12.8;10.25;;;;;;;13.01;100;95465.76;;;;
2021/09/12 00:18:38;;;;;;;12.8;10.25;;;;;;;13.01;100;95465.76;;;;
2021/09/12 00:19:38;;;;;;;12.8;10.25;;;;;;;13.01;100;95465.76;;;;
2021/09/12 00:20:39;;;;;;;12.8;10.25;;;;;;;13.01;100;95465.76;;;;
2021/09/12 00:21:40;;;;;;;12.8;10.25;;;;;;;13.01;100;95465.76;;;;
2021/09/12 00:22:40;;;;;;;12.8;10.25;;;;;;;13.01;100;95465.76;;;;
2021/09/12 00:23:41;;;;;;;12.8;10.25;;;;;;;13.01;100;95465.76;;;;
2021/09/12 00:24:41;;;;;;;12.8;10.25;;;;;;;13.01;100;95465.76;;;;
2021/09/12 00:25:42;;;;;;;12.1;10.5;;;;;;;12.95;100;95459.01;;;;
2021/09/12 00:26:43;;;;;;;12.1;10.5;;;;;;;12.95;100;95459.01;;;;
2021/09/12 00:27:43;;;;;;;12.1;10.5;;;;;;;12.95;100;95459.01;;;;
2021/09/12 00:28:44;;;;;;;12.1;10.5;;;;;;;12.95;100;95459.01;;;;
2021/09/12 00:29:44;;;;;;;12.1;10.5;;;;;;;12.95;100;95459.01;;;;
2021/09/12 00:30:45;;;;;;;12.1;10.5;;;;;;;12.95;100;95459.01;;;;
2021/09/12 00:31:45;;;;;;;12.1;10.5;;;;;;;12.95;100;95459.01;;;;
2021/09/12 00:32:46;;;;;;;12.1;10.5;;;;;;;12.95;100;95459.01;;;;
2021/09/12 00:33:46;;;;;;;12.1;10.5;;;;;;;12.95;100;95459.01;;;;
2021/09/12 00:34:47;;;;;;;12.1;10.5;;;;;;;12.95;100;95459.01;;;;
2021/09/12 00:35:47;;;;;;;12.1;10.5;;;;;;;12.95;100;95459.01;;;;
2021/09/12 00:36:48;;;;;;;12.7;11.4;;;;;;;12.89;100;95459.08;;;;
2021/09/12 00:37:50;;;;;;;12.7;11.4;;;;;;;12.89;100;95459.08;;;;
2021/09/12 00:38:51;;;;;;;12.7;11.4;;;;;;;12.89;100;95459.08;;;;
2021/09/12 00:39:51;;;;;;;12.7;11.4;;;;;;;12.89;100;95459.08;;;;
2021/09/12 00:40:52;;;;;;;12.7;11.4;;;;;;;12.89;100;95459.08;;;;
2021/09/12 00:41:56;;;;;;;12.7;11.4;;;;;;;12.89;100;95459.08;;;;
2021/09/12 00:42:56;;;;;;;12.7;11.4;;;;;;;12.89;100;95459.08;;;;
2021/09/12 00:43:57;;;;;;;12.7;11.4;;;;;;;12.89;100;95459.08;;;;
2021/09/12 00:45:00;;;;;;;12.7;11.4;;;;;;;12.89;100;95459.08;;;;
2021/09/12 00:46:06;;;;;;;12.7;11.4;;;;;;;12.89;100;95459.08;;;;
2021/09/12 00:47:06;;;;;;;13.9;11.35;;;;;;;12.92;100;95464.53;;;;
2021/09/12 00:48:11;;;;;;;13.9;11.35;;;;;;;12.92;100;95464.53;;;;
2021/09/12 00:49:11;;;;;;;13.9;11.35;;;;;;;12.92;100;95464.53;;;;
2021/09/12 00:50:13;;;;;;;13.9;11.35;;;;;;;12.92;100;95464.53;;;;
2021/09/12 00:51:15;;;;;;;13.9;11.35;;;;;;;12.92;100;95464.53;;;;
2021/09/12 00:52:15;;;;;;;13.9;11.35;;;;;;;12.92;100;95464.53;;;;
2021/09/12 00:53:17;;;;;;;13.9;11.35;;;;;;;12.92;100;95464.53;;;;
2021/09/12 00:54:18;;;;;;;13.9;11.35;;;;;;;12.92;100;95464.53;;;;
2021/09/12 00:55:19;;;;;;;13.9;11.35;;;;;;;12.92;100;95464.53;;;;
2021/09/12 00:56:21;;;;;;;13.9;11.35;;;;;;;12.92;100;95464.53;;;;
2021/09/12 00:57:22;;;;;;;11.95;10.75;;;;;;;12.85;100;95466.58;;;;
2021/09/12 00:58:24;;;;;;;11.95;10.75;;;;;;;12.85;100;95466.58;;;;
2021/09/12 00:59:25;;;;;;;11.95;10.75;;;;;;;12.85;100;95466.58;;;;
2021/09/12 01:00:27;;;;;;;11.95;10.75;;;;;;;12.85;100;95466.58;;;;
2021/09/12 01:01:28;;;;;;;11.95;10.75;;;;;;;12.85;100;95466.58;;;;
2021/09/12 01:02:29;;;;;;;11.95;10.75;;;;;;;12.85;100;95466.58;;;;
2021/09/12 01:03:29;;;;;;;11.95;10.75;;;;;;;12.85;100;95466.58;;;;
2021/09/12 01:04:30;;;;;;;11.95;10.75;;;;;;;12.85;100;95466.58;;;;
2021/09/12 01:05:31;;;;;;;11.95;10.75;;;;;;;12.85;100;95466.58;;;;
2021/09/12 01:06:32;;;;;;;11.95;10.75;;;;;;;12.85;100;95466.58;;;;
2021/09/12 01:07:32;;;;;;;11.95;10.75;;;;;;;12.85;100;95466.58;;;;
2021/09/12 01:08:33;;;;;;;11.35;10.15;;;;;;;12.77;100;95461.02;;;;
2021/09/12 01:09:34;;;;;;;11.35;10.15;;;;;;;12.77;100;95461.02;;;;
2021/09/12 01:10:37;;;;;;;11.35;10.15;;;;;;;12.77;100;95461.02;;;;
2021/09/12 01:11:40;;;;;;;11.35;10.15;;;;;;;12.77;100;95461.02;;;;
2021/09/12 01:12:40;;;;;;;11.35;10.15;;;;;;;12.77;100;95461.02;;;;
2021/09/12 01:13:41;;;;;;;11.35;10.15;;;;;;;12.77;100;95461.02;;;;
2021/09/12 01:14:43;;;;;;;11.35;10.15;;;;;;;12.77;100;95461.02;;;;
2021/09/12 01:15:43;;;;;;;11.35;10.15;;;;;;;12.77;100;95461.02;;;;
2021/09/12 01:16:44;;;;;;;11.35;10.15;;;;;;;12.77;100;95461.02;;;;
2021/09/12 01:17:44;;;;;;;11.35;10.15;;;;;;;12.77;100;95461.02;;;;
2021/09/12 01:18:45;;;;;;;14.3;11.4;;;;;;;12.8;100;95456.59;;;;
2021/09/12 01:19:47;;;;;;;14.3;11.4;;;;;;;12.8;100;95456.59;;;;
2021/09/12 01:20:47;;;;;;;14.3;11.4;;;;;;;12.8;100;95456.59;;;;
2021/09/12 01:21:47;;;;;;;14.3;11.4;;;;;;;12.8;100;95456.59;;;;
2021/09/12 01:22:53;;;;;;;14.3;11.4;;;;;;;12.8;100;95456.59;;;;
2021/09/12 01:23:53;;;;;;;14.3;11.4;;;;;;;12.8;100;95456.59;;;;
2021/09/12 01:24:54;;;;;;;14.3;11.4;;;;;;;12.8;100;95456.59;;;;
2021/09/12 01:25:54;;;;;;;14.3;11.4;;;;;;;12.8;100;95456.59;;;;
2021/09/12 01:26:55;;;;;;;14.3;11.4;;;;;;;12.8;100;95456.59;;;;
2021/09/12 01:27:56;;;;;;;14.3;11.4;;;;;;;12.8;100;95456.59;;;;
2021/09/12 01:28:57;;;;;;;14.3;11.4;;;;;;;12.8;100;95456.59;;;;
2021/09/12 01:29:57;;;;;;;12.9;11.55;;;;;;;12.77;100;95448.44;;;;
2021/09/12 01:31:00;;;;;;;12.9;11.55;;;;;;;12.77;100;95448.44;;;;
2021/09/12 01:32:01;;;;;;;12.9;11.55;;;;;;;12.77;100;95448.44;;;;
2021/09/12 01:33:01;;;;;;;12.9;11.55;;;;;;;12.77;100;95448.44;;;;
2021/09/12 01:34:02;;;;;;;12.9;11.55;;;;;;;12.77;100;95448.44;;;;
2021/09/12 01:35:02;;;;;;;12.9;11.55;;;;;;;12.77;100;95448.44;;;;
2021/09/12 01:36:05;;;;;;;12.9;11.55;;;;;;;12.77;100;95448.44;;;;
2021/09/12 01:37:05;;;;;;;12.9;11.55;;;;;;;12.77;100;95448.44;;;;
2021/09/12 01:38:06;;;;;;;12.9;11.55;;;;;;;12.77;100;95448.44;;;;
2021/09/12 01:39:06;;;;;;;12.9;11.55;;;;;;;12.77;100;95448.44;;;;
2021/09/12 01:40:07;;;;;;;12.9;11.55;;;;;;;12.73;100;95436.97;;;;
2021/09/12 01:41:09;;;;;;;12.9;11.55;;;;;;;12.73;100;95436.97;;;;
2021/09/12 01:42:11;;;;;;;12.9;11.55;;;;;;;12.73;100;95436.97;;;;
2021/09/12 01:43:11;;;;;;;12.9;11.55;;;;;;;12.73;100;95436.97;;;;
2021/09/12 01:44:12;;;;;;;12.9;11.55;;;;;;;12.73;100;95436.97;;;;
2021/09/12 01:45:13;;;;;;;12.9;11.55;;;;;;;12.73;100;95436.97;;;;
2021/09/12 01:46:13;;;;;;;12.9;11.55;;;;;;;12.73;100;95436.97;;;;
2021/09/12 01:47:14;;;;;;;12.9;11.55;;;;;;;12.73;100;95436.97;;;;
2021/09/12 01:48:15;;;;;;;12.9;11.55;;;;;;;12.73;100;95436.97;;;;
2021/09/12 01:49:16;;;;;;;12.9;11.55;;;;;;;12.73;100;95436.97;;;;
2021/09/12 01:50:17;;;;;;;12.9;11.55;;;;;;;12.73;100;95436.97;;;;
2021/09/12 01:51:18;;;;;;;13.65;11.6;;;;;;;12.68;100;95438.11;;;;
2021/09/12 01:52:18;;;;;;;13.65;11.6;;;;;;;12.68;100;95438.11;;;;
2021/09/12 01:53:19;;;;;;;13.65;11.6;;;;;;;12.68;100;95438.11;;;;
2021/09/12 01:54:19;;;;;;;13.65;11.6;;;;;;;12.68;100;95438.11;;;;
2021/09/12 01:55:20;;;;;;;13.65;11.6;;;;;;;12.68;100;95438.11;;;;
2021/09/12 01:56:22;;;;;;;13.65;11.6;;;;;;;12.68;100;95438.11;;;;
2021/09/12 01:57:22;;;;;;;13.65;11.6;;;;;;;12.68;100;95438.11;;;;
2021/09/12 01:58:23;;;;;;;13.65;11.6;;;;;;;12.68;100;95438.11;;;;
2021/09/12 01:59:23;;;;;;;13.65;11.6;;;;;;;12.68;100;95438.11;;;;
2021/09/12 02:00:24;;;;;;;13.65;11.6;;;;;;;12.68;100;95438.11;;;;
2021/09/12 02:01:24;;;;;;;13.45;11.05;;;;;;;12.63;100;95437.19;;;;
2021/09/12 02:02:25;;;;;;;13.45;11.05;;;;;;;12.63;100;95437.19;;;;
2021/09/12 02:03:25;;;;;;;13.45;11.05;;;;;;;12.63;100;95437.19;;;;
2021/09/12 02:04:26;;;;;;;13.45;11.05;;;;;;;12.63;100;95437.19;;;;
2021/09/12 02:05:26;;;;;;;13.45;11.05;;;;;;;12.63;100;95437.19;;;;
2021/09/12 02:06:28;;;;;;;13.45;11.05;;;;;;;12.63;100;95437.19;;;;
2021/09/12 02:07:28;;;;;;;13.45;11.05;;;;;;;12.63;100;95437.19;;;;
2021/09/12 02:08:29;;;;;;;13.45;11.05;;;;;;;12.63;100;95437.19;;;;
2021/09/12 02:09:29;;;;;;;13.45;11.05;;;;;;;12.63;100;95437.19;;;;
2021/09/12 02:10:30;;;;;;;13.45;11.05;;;;;;;12.63;100;95437.19;;;;
2021/09/12 02:11:30;;;;;;;13.45;11.05;;;;;;;12.63;100;95437.19;;;;
2021/09/12 02:12:31;;;;;;;12.3;11;;;;;;;12.55;100;95432.09;;;;
2021/09/12 02:13:31;;;;;;;12.3;11;;;;;;;12.55;100;95432.09;;;;
2021/09/12 02:14:32;;;;;;;12.3;11;;;;;;;12.55;100;95432.09;;;;
2021/09/12 02:15:32;;;;;;;12.3;11;;;;;;;12.55;100;95432.09;;;;
2021/09/12 02:16:33;;;;;;;12.3;11;;;;;;;12.55;100;95432.09;;;;
2021/09/12 02:17:34;;;;;;;12.3;11;;;;;;;12.55;100;95432.09;;;;
2021/09/12 02:18:35;;;;;;;12.3;11;;;;;;;12.55;100;95432.09;;;;
2021/09/12 02:19:35;;;;;;;12.3;11;;;;;;;12.55;100;95432.09;;;;
2021/09/12 02:20:36;;;;;;;12.3;11;;;;;;;12.55;100;95432.09;;;;
2021/09/12 02:21:37;;;;;;;12.3;11;;;;;;;12.55;100;95432.09;;;;
2021/09/12 02:22:38;;;;;;;11.05;9.950001;;;;;;;12.46;100;95426.78;;;;
2021/09/12 02:23:38;;;;;;;11.05;9.950001;;;;;;;12.46;100;95426.78;;;;
2021/09/12 02:24:39;;;;;;;11.05;9.950001;;;;;;;12.46;100;95426.78;;;;
2021/09/12 02:25:39;;;;;;;11.05;9.950001;;;;;;;12.46;100;95426.78;;;;
2021/09/12 02:26:40;;;;;;;11.05;9.950001;;;;;;;12.46;100;95426.78;;;;
2021/09/12 02:27:40;;;;;;;11.05;9.950001;;;;;;;12.46;100;95426.78;;;;
2021/09/12 02:28:41;;;;;;;11.05;9.950001;;;;;;;12.46;100;95426.78;;;;
2021/09/12 02:29:41;;;;;;;11.05;9.950001;;;;;;;12.46;100;95426.78;;;;
2021/09/12 02:30:42;;;;;;;11.05;9.950001;;;;;;;12.46;100;95426.78;;;;
2021/09/12 02:31:43;;;;;;;11.05;9.950001;;;;;;;12.46;100;95426.78;;;;
2021/09/12 02:32:43;;;;;;;11.05;9.950001;;;;;;;12.46;100;95426.78;;;;
2021/09/12 02:33:44;;;;;;;11.05;9.950001;;;;;;;12.46;100;95426.78;;;;
2021/09/12 02:34:44;;;;;;;11.05;9.950001;;;;;;;12.46;100;95426.78;;;;
2021/09/12 02:35:45;;;;;;;11.05;9.950001;;;;;;;12.46;100;95426.78;;;;
2021/09/12 02:36:45;;;;;;;11.05;9.950001;;;;;;;12.46;100;95426.78;;;;
2021/09/12 02:37:46;;;;;;;11.05;9.950001;;;;;;;12.46;100;95426.78;;;;
2021/09/12 02:38:47;;;;;;;11.05;9.950001;;;;;;;12.46;100;95426.78;;;;
2021/09/12 02:39:47;;;;;;;11.05;9.950001;;;;;;;12.46;100;95426.78;;;;
2021/09/12 02:40:48;;;;;;;11.05;9.950001;;;;;;;12.46;100;95426.78;;;;
2021/09/12 02:41:48;;;;;;;11.05;9.950001;;;;;;;12.46;100;95426.78;;;;
2021/09/12 02:42:49;;;;;;;11.05;9.950001;;;;;;;12.46;100;95426.78;;;;
2021/09/12 02:43:49;;;;;;;11.05;9.950001;;;;;;;12.46;100;95426.78;;;;
2021/09/12 02:44:50;;;;;;;12.1;10.55;;;;;;;12.31;100;95439.61;;;;
2021/09/12 02:45:50;;;;;;;12.1;10.55;;;;;;;12.31;100;95439.61;;;;
2021/09/12 02:46:51;;;;;;;12.1;10.55;;;;;;;12.31;100;95439.61;;;;
2021/09/12 02:47:51;;;;;;;12.1;10.55;;;;;;;12.31;100;95439.61;;;;
2021/09/12 02:48:52;;;;;;;12.1;10.55;;;;;;;12.31;100;95439.61;;;;
2021/09/12 02:49:52;;;;;;;12.1;10.55;;;;;;;12.31;100;95439.61;;;;
2021/09/12 02:50:53;;;;;;;12.1;10.55;;;;;;;12.31;100;95439.61;;;;
2021/09/12 02:51:53;;;;;;;12.1;10.55;;;;;;;12.31;100;95439.61;;;;
2021/09/12 02:52:54;;;;;;;12.1;10.55;;;;;;;12.31;100;95439.61;;;;
2021/09/12 02:53:54;;;;;;;12.1;10.55;;;;;;;12.31;100;95439.61;;;;
2021/09/12 02:54:55;;;;;;;11.5;10.2;;;;;;;12.28;100;95444.59;;;;
2021/09/12 02:55:55;;;;;;;11.5;10.2;;;;;;;12.28;100;95444.59;;;;
2021/09/12 02:56:56;;;;;;;11.5;10.2;;;;;;;12.28;100;95444.59;;;;
2021/09/12 02:57:56;;;;;;;11.5;10.2;;;;;;;12.28;100;95444.59;;;;
2021/09/12 02:58:56;;;;;;;11.5;10.2;;;;;;;12.28;100;95444.59;;;;
2021/09/12 02:59:58;;;;;;;11.5;10.2;;;;;;;12.28;100;95444.59;;;;
2021/09/12 03:00:59;;;;;;;11.5;10.2;;;;;;;12.28;100;95444.59;;;;
2021/09/12 03:02:00;;;;;;;11.5;10.2;;;;;;;12.28;100;95444.59;;;;
2021/09/12 03:03:00;;;;;;;11.5;10.2;;;;;;;12.28;100;95444.59;;;;
2021/09/12 03:04:01;;;;;;;11.5;10.2;;;;;;;12.28;100;95444.59;;;;
2021/09/12 03:05:01;;;;;;;11.5;10.2;;;;;;;12.28;100;95444.59;;;;
2021/09/12 03:06:02;;;;;;;11.5;10.2;;;;;;;12.28;100;95444.59;;;;
2021/09/12 03:07:02;;;;;;;11.5;10.2;;;;;;;12.28;100;95444.59;;;;
2021/09/12 03:08:03;;;;;;;11.5;10.2;;;;;;;12.28;100;95444.59;;;;
2021/09/12 03:09:05;;;;;;;11.5;10.2;;;;;;;12.28;100;95444.59;;;;
2021/09/12 03:10:05;;;;;;;11.5;10.2;;;;;;;12.28;100;95444.59;;;;
2021/09/12 03:11:06;;;;;;;11.5;10.2;;;;;;;12.28;100;95444.59;;;;
2021/09/12 03:12:07;;;;;;;11.5;10.2;;;;;;;12.28;100;95444.59;;;;
2021/09/12 03:13:08;;;;;;;11.5;10.2;;;;;;;12.28;100;95444.59;;;;
2021/09/12 03:14:08;;;;;;;11.5;10.2;;;;;;;12.28;100;95444.59;;;;
2021/09/12 03:15:09;;;;;;;11.5;10.2;;;;;;;12.28;100;95444.59;;;;
2021/09/12 03:16:09;;;;;;;12.05;10.9;;;;;;;12.36;100;95451.09;;;;
2021/09/12 03:17:10;;;;;;;12.05;10.9;;;;;;;12.36;100;95451.09;;;;
2021/09/12 03:18:12;;;;;;;12.05;10.9;;;;;;;12.36;100;95451.09;;;;
2021/09/12 03:19:12;;;;;;;12.05;10.9;;;;;;;12.36;100;95451.09;;;;
2021/09/12 03:20:13;;;;;;;12.05;10.9;;;;;;;12.36;100;95451.09;;;;
2021/09/12 03:21:14;;;;;;;12.05;10.9;;;;;;;12.36;100;95451.09;;;;
2021/09/12 03:22:14;;;;;;;12.05;10.9;;;;;;;12.36;100;95451.09;;;;
2021/09/12 03:23:15;;;;;;;12.05;10.9;;;;;;;12.36;100;95451.09;;;;
2021/09/12 03:24:15;;;;;;;12.05;10.9;;;;;;;12.36;100;95451.09;;;;
2021/09/12 03:25:16;;;;;;;12.05;10.9;;;;;;;12.36;100;95451.09;;;;
2021/09/12 03:26:16;;;;;;;12.05;10.9;;;;;;;12.36;100;95451.09;;;;
2021/09/12 03:27:17;;;;;;;13.8;12.25;;;;;;;12.38;100;95445.7;;;;
2021/09/12 03:28:17;;;;;;;13.8;12.25;;;;;;;12.38;100;95445.7;;;;
2021/09/12 03:29:17;;;;;;;13.8;12.25;;;;;;;12.38;100;95445.7;;;;
2021/09/12 03:30:18;;;;;;;13.8;12.25;;;;;;;12.38;100;95445.7;;;;
2021/09/12 03:31:19;;;;;;;13.8;12.25;;;;;;;12.38;100;95445.7;;;;
2021/09/12 03:32:19;;;;;;;13.8;12.25;;;;;;;12.38;100;95445.7;;;;
2021/09/12 03:33:20;;;;;;;13.8;12.25;;;;;;;12.38;100;95445.7;;;;
2021/09/12 03:34:20;;;;;;;13.8;12.25;;;;;;;12.38;100;95445.7;;;;
2021/09/12 03:35:21;;;;;;;13.8;12.25;;;;;;;12.38;100;95445.7;;;;
2021/09/12 03:36:21;;;;;;;13.8;12.25;;;;;;;12.38;100;95445.7;;;;
2021/09/12 03:37:22;;;;;;;13.8;12.25;;;;;;;12.38;100;95445.7;;;;
2021/09/12 03:38:22;;;;;;;13.8;12.25;;;;;;;12.38;100;95445.7;;;;
2021/09/12 03:39:23;;;;;;;13.8;12.25;;;;;;;12.38;100;95445.7;;;;
2021/09/12 03:40:23;;;;;;;13.8;12.25;;;;;;;12.38;100;95445.7;;;;
2021/09/12 03:41:24;;;;;;;13.8;12.25;;;;;;;12.38;100;95445.7;;;;
2021/09/12 03:42:24;;;;;;;13.8;12.25;;;;;;;12.38;100;95445.7;;;;
2021/09/12 03:43:25;;;;;;;13.8;12.25;;;;;;;12.38;100;95445.7;;;;
2021/09/12 03:44:26;;;;;;;13.8;12.25;;;;;;;12.38;100;95445.7;;;;
2021/09/12 03:45:26;;;;;;;13.8;12.25;;;;;;;12.38;100;95445.7;;;;
2021/09/12 03:46:27;;;;;;;13.8;12.25;;;;;;;12.38;100;95445.7;;;;
2021/09/12 03:47:27;;;;;;;13.8;12.25;;;;;;;12.38;100;95445.7;;;;
2021/09/12 03:48:28;;;;;;;12.05;10.85;;;;;;;12.55;100;95427.61;;;;
2021/09/12 03:49:28;;;;;;;12.05;10.85;;;;;;;12.55;100;95427.61;;;;
2021/09/12 03:50:29;;;;;;;12.05;10.85;;;;;;;12.55;100;95427.61;;;;
2021/09/12 03:51:29;;;;;;;12.05;10.85;;;;;;;12.55;100;95427.61;;;;
2021/09/12 03:52:30;;;;;;;12.05;10.85;;;;;;;12.55;100;95427.61;;;;
2021/09/12 03:53:30;;;;;;;12.05;10.85;;;;;;;12.55;100;95427.61;;;;
2021/09/12 03:54:31;;;;;;;12.05;10.85;;;;;;;12.55;100;95427.61;;;;
2021/09/12 03:55:31;;;;;;;12.05;10.85;;;;;;;12.55;100;95427.61;;;;
2021/09/12 03:56:32;;;;;;;12.05;10.85;;;;;;;12.55;100;95427.61;;;;
2021/09/12 03:57:32;;;;;;;12.05;10.85;;;;;;;12.55;100;95427.61;;;;
2021/09/12 03:58:33;;;;;;;12.05;10.85;;;;;;;12.55;100;95427.61;;;;
2021/09/12 03:59:33;;;;;;;11.8;10.7;;;;;;;12.51;100;95424.16;;;;
2021/09/12 04:00:34;;;;;;;11.8;10.7;;;;;;;12.51;100;95424.16;;;;
2021/09/12 04:01:35;;;;;;;11.8;10.7;;;;;;;12.51;100;95424.16;;;;
2021/09/12 04:02:35;;;;;;;11.8;10.7;;;;;;;12.51;100;95424.16;;;;
2021/09/12 04:03:36;;;;;;;11.8;10.7;;;;;;;12.51;100;95424.16;;;;
2021/09/12 04:04:36;;;;;;;11.8;10.7;;;;;;;12.51;100;95424.16;;;;
2021/09/12 04:05:37;;;;;;;11.8;10.7;;;;;;;12.51;100;95424.16;;;;
2021/09/12 04:06:37;;;;;;;11.8;10.7;;;;;;;12.51;100;95424.16;;;;
2021/09/12 04:07:38;;;;;;;11.8;10.7;;;;;;;12.51;100;95424.16;;;;
2021/09/12 04:08:38;;;;;;;11.8;10.7;;;;;;;12.51;100;95424.16;;;;
2021/09/12 04:09:39;;;;;;;12.05;10.1;;;;;;;12.43;100;95430.51;;;;
2021/09/12 04:10:39;;;;;;;12.05;10.1;;;;;;;12.43;100;95430.51;;;;
2021/09/12 04:11:40;;;;;;;12.05;10.1;;;;;;;12.43;100;95430.51;;;;
2021/09/12 04:12:41;;;;;;;12.05;10.1;;;;;;;12.43;100;95430.51;;;;
2021/09/12 04:13:41;;;;;;;12.05;10.1;;;;;;;12.43;100;95430.51;;;;
2021/09/12 04:14:42;;;;;;;12.05;10.1;;;;;;;12.43;100;95430.51;;;;
2021/09/12 04:15:42;;;;;;;12.05;10.1;;;;;;;12.43;100;95430.51;;;;
2021/09/12 04:16:44;;;;;;;12.05;10.1;;;;;;;12.43;100;95430.51;;;;
2021/09/12 04:17:45;;;;;;;12.05;10.1;;;;;;;12.43;100;95430.51;;;;
2021/09/12 04:18:45;;;;;;;12.05;10.1;;;;;;;12.43;100;95430.51;;;;
2021/09/12 04:19:46;;;;;;;12.05;10.1;;;;;;;12.43;100;95430.51;;;;
2021/09/12 04:20:46;;;;;;;10;9.099999;;;;;;;12.32;100;95428.13;;;;
2021/09/12 04:21:47;;;;;;;10;9.099999;;;;;;;12.32;100;95428.13;;;;
2021/09/12 04:22:47;;;;;;;10;9.099999;;;;;;;12.32;100;95428.13;;;;
2021/09/12 04:23:48;;;;;;;10;9.099999;;;;;;;12.32;100;95428.13;;;;
2021/09/12 04:24:48;;;;;;;10;9.099999;;;;;;;12.32;100;95428.13;;;;
2021/09/12 04:25:49;;;;;;;10;9.099999;;;;;;;12.32;100;95428.13;;;;
2021/09/12 04:26:49;;;;;;;10;9.099999;;;;;;;12.32;100;95428.13;;;;
2021/09/12 04:27:50;;;;;;;10;9.099999;;;;;;;12.32;100;95428.13;;;;
2021/09/12 04:28:50;;;;;;;10;9.099999;;;;;;;12.32;100;95428.13;;;;
2021/09/12 04:29:51;;;;;;;10;9.099999;;;;;;;12.32;100;95428.13;;;;
2021/09/12 04:30:52;;;;;;;10.25;9.250001;;;;;;;12.22;100;95431.59;;;;
2021/09/12 04:31:52;;;;;;;10.25;9.250001;;;;;;;12.22;100;95431.59;;;;
2021/09/12 04:32:53;;;;;;;10.25;9.250001;;;;;;;12.22;100;95431.59;;;;
2021/09/12 04:33:53;;;;;;;10.25;9.250001;;;;;;;12.22;100;95431.59;;;;
2021/09/12 04:34:54;;;;;;;10.25;9.250001;;;;;;;12.22;100;95431.59;;;;
2021/09/12 04:35:54;;;;;;;10.25;9.250001;;;;;;;12.22;100;95431.59;;;;
2021/09/12 04:36:55;;;;;;;10.25;9.250001;;;;;;;12.22;100;95431.59;;;;
2021/09/12 04:37:55;;;;;;;10.25;9.250001;;;;;;;12.22;100;95431.59;;;;
2021/09/12 04:38:56;;;;;;;10.25;9.250001;;;;;;;12.22;100;95431.59;;;;
2021/09/12 04:39:56;;;;;;;10.25;9.250001;;;;;;;12.22;100;95431.59;;;;
2021/09/12 04:40:57;;;;;;;10.25;9.250001;;;;;;;12.22;100;95431.59;;;;
2021/09/12 04:41:57;;;;;;;10.25;9.250001;;;;;;;12.22;100;95431.59;;;;
2021/09/12 04:42:58;;;;;;;10.25;9.250001;;;;;;;12.22;100;95431.59;;;;
2021/09/12 04:43:58;;;;;;;10.25;9.250001;;;;;;;12.22;100;95431.59;;;;
2021/09/12 04:44:59;;;;;;;10.25;9.250001;;;;;;;12.22;100;95431.59;;;;
2021/09/12 04:45:59;;;;;;;10.25;9.250001;;;;;;;12.22;100;95431.59;;;;
2021/09/12 04:47:00;;;;;;;10.25;9.250001;;;;;;;12.22;100;95431.59;;;;
2021/09/12 04:48:00;;;;;;;10.25;9.250001;;;;;;;12.22;100;95431.59;;;;
2021/09/12 04:49:01;;;;;;;10.25;9.250001;;;;;;;12.22;100;95431.59;;;;
2021/09/12 04:50:01;;;;;;;10.25;9.250001;;;;;;;12.22;100;95431.59;;;;
2021/09/12 04:51:03;;;;;;;10.25;9.250001;;;;;;;12.22;100;95431.59;;;;
2021/09/12 04:52:03;;;;;;;10.25;9.299998;;;;;;;12.14;100;95420.75;;;;
2021/09/12 04:53:05;;;;;;;10.25;9.299998;;;;;;;12.14;100;95420.75;;;;
2021/09/12 04:54:05;;;;;;;10.25;9.299998;;;;;;;12.14;100;95420.75;;;;
2021/09/12 04:55:06;;;;;;;10.25;9.299998;;;;;;;12.14;100;95420.75;;;;
2021/09/12 04:56:07;;;;;;;10.25;9.299998;;;;;;;12.14;100;95420.75;;;;
2021/09/12 04:57:08;;;;;;;10.25;9.299998;;;;;;;12.14;100;95420.75;;;;
2021/09/12 04:58:08;;;;;;;10.25;9.299998;;;;;;;12.14;100;95420.75;;;;
2021/09/12 04:59:09;;;;;;;10.25;9.299998;;;;;;;12.14;100;95420.75;;;;
2021/09/12 05:00:09;;;;;;;10.25;9.299998;;;;;;;12.14;100;95420.75;;;;
2021/09/12 05:01:10;;;;;;;10.25;9.299998;;;;;;;12.14;100;95420.75;;;;
2021/09/12 05:02:11;;;;;;;10.25;9.299998;;;;;;;12.14;100;95420.75;;;;
2021/09/12 05:03:11;;;;;;;10.25;9.149999;;;;;;;12.19;100;95427.2;;;;
2021/09/12 05:04:12;;;;;;;10.25;9.149999;;;;;;;12.19;100;95427.2;;;;
2021/09/12 05:05:12;;;;;;;10.25;9.149999;;;;;;;12.19;100;95427.2;;;;
2021/09/12 05:06:13;;;;;;;10.25;9.149999;;;;;;;12.19;100;95427.2;;;;
2021/09/12 05:07:13;;;;;;;10.25;9.149999;;;;;;;12.19;100;95427.2;;;;
2021/09/12 05:08:14;;;;;;;10.25;9.149999;;;;;;;12.19;100;95427.2;;;;
2021/09/12 05:09:14;;;;;;;10.25;9.149999;;;;;;;12.19;100;95427.2;;;;
2021/09/12 05:10:15;;;;;;;10.25;9.149999;;;;;;;12.19;100;95427.2;;;;
2021/09/12 05:11:15;;;;;;;10.25;9.149999;;;;;;;12.19;100;95427.2;;;;
2021/09/12 05:12:16;;;;;;;10.25;9.149999;;;;;;;12.19;100;95427.2;;;;
2021/09/12 05:13:17;;;;;;;10.25;9.149999;;;;;;;12.19;100;95427.2;;;;
2021/09/12 05:14:17;;;;;;;10.6;9.6;;;;;;;12.17;100;95427.86;;;;
2021/09/12 05:15:19;;;;;;;10.6;9.6;;;;;;;12.17;100;95427.86;;;;
2021/09/12 05:16:19;;;;;;;10.6;9.6;;;;;;;12.17;100;95427.86;;;;
2021/09/12 05:17:20;;;;;;;10.6;9.6;;;;;;;12.17;100;95427.86;;;;
2021/09/12 05:18:20;;;;;;;10.6;9.6;;;;;;;12.17;100;95427.86;;;;
2021/09/12 05:19:21;;;;;;;10.6;9.6;;;;;;;12.17;100;95427.86;;;;
2021/09/12 05:20:22;;;;;;;10.6;9.6;;;;;;;12.17;100;95427.86;;;;
2021/09/12 05:21:23;;;;;;;10.6;9.6;;;;;;;12.17;100;95427.86;;;;
2021/09/12 05:22:23;;;;;;;10.6;9.6;;;;;;;12.17;100;95427.86;;;;
2021/09/12 05:23:24;;;;;;;10.6;9.6;;;;;;;12.17;100;95427.86;;;;
2021/09/12 05:24:24;;;;;;;10.05;8.950001;;;;;;;12.25;100;95431.52;;;;
2021/09/12 05:25:25;;;;;;;10.05;8.950001;;;;;;;12.25;100;95431.52;;;;
2021/09/12 05:26:25;;;;;;;10.05;8.950001;;;;;;;12.25;100;95431.52;;;;
2021/09/12 05:27:26;;;;;;;10.05;8.950001;;;;;;;12.25;100;95431.52;;;;
2021/09/12 05:28:26;;;;;;;10.05;8.950001;;;;;;;12.25;100;95431.52;;;;
2021/09/12 05:29:27;;;;;;;10.05;8.950001;;;;;;;12.25;100;95431.52;;;;
2021/09/12 05:30:27;;;;;;;10.05;8.950001;;;;;;;12.25;100;95431.52;;;;
2021/09/12 05:31:28;;;;;;;10.05;8.950001;;;;;;;12.25;100;95431.52;;;;
2021/09/12 05:32:29;;;;;;;10.05;8.950001;;;;;;;12.25;100;95431.52;;;;
2021/09/12 05:33:30;;;;;;;10.05;8.950001;;;;;;;12.25;100;95431.52;;;;
2021/09/12 05:34:30;;;;;;;10.05;8.950001;;;;;;;12.25;100;95431.52;;;;
2021/09/12 05:35:31;;;;;;;10.3;9.25;;;;;;;12.34;100;95437.38;;;;
2021/09/12 05:36:31;;;;;;;10.3;9.25;;;;;;;12.34;100;95437.38;;;;
2021/09/12 05:37:32;;;;;;;10.3;9.25;;;;;;;12.34;100;95437.38;;;;
2021/09/12 05:38:32;;;;;;;10.3;9.25;;;;;;;12.34;100;95437.38;;;;
2021/09/12 05:39:33;;;;;;;10.3;9.25;;;;;;;12.34;100;95437.38;;;;
2021/09/12 05:40:34;;;;;;;10.3;9.25;;;;;;;12.34;100;95437.38;;;;
2021/09/12 05:41:35;;;;;;;10.3;9.25;;;;;;;12.34;100;95437.38;;;;
2021/09/12 05:42:35;;;;;;;10.3;9.25;;;;;;;12.34;100;95437.38;;;;
2021/09/12 05:43:37;;;;;;;10.3;9.25;;;;;;;12.34;100;95437.38;;;;
2021/09/12 05:44:37;;;;;;;10.3;9.25;;;;;;;12.34;100;95437.38;;;;
2021/09/12 05:45:38;;;;;;;10.1;9.200002;;;;;;;12.52;100;95443.53;;;;
2021/09/12 05:46:38;;;;;;;10.1;9.200002;;;;;;;12.52;100;95443.53;;;;
2021/09/12 05:47:39;;;;;;;10.1;9.200002;;;;;;;12.52;100;95443.53;;;;
2021/09/12 05:48:39;;;;;;;10.1;9.200002;;;;;;;12.52;100;95443.53;;;;
2021/09/12 05:49:40;;;;;;;10.1;9.200002;;;;;;;12.52;100;95443.53;;;;
2021/09/12 05:50:40;;;;;;;10.1;9.200002;;;;;;;12.52;100;95443.53;;;;
2021/09/12 05:51:41;;;;;;;10.1;9.200002;;;;;;;12.52;100;95443.53;;;;
2021/09/12 05:52:41;;;;;;;10.1;9.200002;;;;;;;12.52;100;95443.53;;;;
2021/09/12 05:53:42;;;;;;;10.1;9.200002;;;;;;;12.52;100;95443.53;;;;
2021/09/12 05:54:43;;;;;;;10.1;9.200002;;;;;;;12.52;100;95443.53;;;;
2021/09/12 05:55:43;;;;;;;10.1;9.200002;;;;;;;12.52;100;95443.53;;;;
2021/09/12 05:56:44;;;;;;;11.55;10.45;;;;;;;12.84;100;95455.05;;;;
2021/09/12 05:57:44;;;;;;;11.55;10.45;;;;;;;12.84;100;95455.05;;;;
2021/09/12 05:58:45;;;;;;;11.55;10.45;;;;;;;12.84;100;95455.05;;;;
2021/09/12 05:59:45;;;;;;;11.55;10.45;;;;;;;12.84;100;95455.05;;;;